sensor_id;sensor_type;location;lat;lon;timestamp;pressure;altitude;pressure_sealevel;temperature;humidity
12349;BME280;5974;42.710;27.258;2024-02-21T00:01:22;100937.69;;;3.36;100.00
12349;BME280;5974;42.710;27.258;2024-02-21T00:03:49;100940.22;;;3.18;100.00
12349;BME280;5974;42.710;27.258;2024-02-21T00:06:16;100938.53;;;3.26;100.00
12349;BME280;5974;42.710;27.258;2024-02-21T00:08:43;100936.84;;;3.34;100.00
12349;BME280;5974;42.710;27.258;2024-02-21T00:11:09;100944.28;;;2.54;100.00
12349;BME280;5974;42.710;27.258;2024-02-21T00:13:36;100944.47;;;2.98;100.00
12349;BME280;5974;42.710;27.258;2024-02-21T00:16:05;100948.00;;;3.16;100.00
12349;BME280;5974;42.710;27.258;2024-02-21T00:18:31;100950.53;;;3.04;100.00
12349;BME280;5974;42.710;27.258;2024-02-21T00:20:58;100947.03;;;2.89;100.00
12349;BME280;5974;42.710;27.258;2024-02-21T00:23:27;100938.47;;;3.08;100.00
12349;BME280;5974;42.710;27.258;2024-02-21T00:25:54;100942.00;;;3.34;100.00
12349;BME280;5974;42.710;27.258;2024-02-21T00:28:20;100948.91;;;3.52;100.00
12349;BME280;5974;42.710;27.258;2024-02-21T00:30:47;100936.75;;;3.11;100.00
12349;BME280;5974;42.710;27.258;2024-02-21T00:33:17;100950.50;;;2.97;100.00
12349;BME280;5974;42.710;27.258;2024-02-21T00:35:43;100942.31;;;2.13;100.00
12349;BME280;5974;42.710;27.258;2024-02-21T00:38:10;100945.06;;;2.36;100.00
12349;BME280;5974;42.710;27.258;2024-02-21T00:40:37;100947.00;;;2.87;100.00
12349;BME280;5974;42.710;27.258;2024-02-21T00:43:03;100939.31;;;2.98;100.00
12349;BME280;5974;42.710;27.258;2024-02-21T00:45:30;100943.59;;;2.93;100.00
12349;BME280;5974;42.710;27.258;2024-02-21T00:47:57;100936.75;;;3.01;100.00
12349;BME280;5974;42.710;27.258;2024-02-21T00:50:25;100940.25;;;3.21;100.00
12349;BME280;5974;42.710;27.258;2024-02-21T00:52:52;100930.66;;;2.90;100.00
12349;BME280;5974;42.710;27.258;2024-02-21T00:55:18;100930.59;;;2.71;100.00
12349;BME280;5974;42.710;27.258;2024-02-21T00:57:45;100920.22;;;2.62;100.00
12349;BME280;5974;42.710;27.258;2024-02-21T01:00:13;100918.47;;;2.55;100.00
12349;BME280;5974;42.710;27.258;2024-02-21T01:02:39;100907.97;;;2.17;100.00
12349;BME280;5974;42.710;27.258;2024-02-21T01:05:07;100917.53;;;2.38;100.00
12349;BME280;5974;42.710;27.258;2024-02-21T01:07:35;100919.31;;;2.48;100.00
12349;BME280;5974;42.710;27.258;2024-02-21T01:10:02;100919.09;;;2.09;100.00
12349;BME280;5974;42.710;27.258;2024-02-21T01:12:29;100919.78;;;1.87;100.00
12349;BME280;5974;42.710;27.258;2024-02-21T01:14:55;100922.97;;;1.57;100.00
12349;BME280;5974;42.710;27.258;2024-02-21T01:17:22;100929.69;;;1.38;100.00
12349;BME280;5974;42.710;27.258;2024-02-21T01:19:49;100920.63;;;0.95;100.00
12349;BME280;5974;42.710;27.258;2024-02-21T01:22:16;100924.38;;;1.26;100.00
12349;BME280;5974;42.710;27.258;2024-02-21T01:24:44;100919.59;;;1.64;100.00
12349;BME280;5974;42.710;27.258;2024-02-21T01:27:11;100914.50;;;1.70;100.00
12349;BME280;5974;42.710;27.258;2024-02-21T01:29:38;100912.91;;;1.84;100.00
12349;BME280;5974;42.710;27.258;2024-02-21T01:32:05;100917.16;;;1.81;100.00
12349;BME280;5974;42.710;27.258;2024-02-21T01:34:32;100912.78;;;1.71;100.00
12349;BME280;5974;42.710;27.258;2024-02-21T01:36:58;100911.84;;;1.59;100.00
12349;BME280;5974;42.710;27.258;2024-02-21T01:39:29;100911.06;;;1.73;100.00
12349;BME280;5974;42.710;27.258;2024-02-21T01:41:58;100907.44;;;1.49;100.00
12349;BME280;5974;42.710;27.258;2024-02-21T01:44:25;100900.50;;;1.42;100.00
12349;BME280;5974;42.710;27.258;2024-02-21T01:46:52;100891.44;;;0.92;100.00
12349;BME280;5974;42.710;27.258;2024-02-21T01:49:19;100893.81;;;0.75;100.00
12349;BME280;5974;42.710;27.258;2024-02-21T01:51:47;100901.91;;;1.07;100.00
12349;BME280;5974;42.710;27.258;2024-02-21T01:54:15;100904.53;;;1.13;100.00
12349;BME280;5974;42.710;27.258;2024-02-21T01:56:42;100898.63;;;1.26;100.00
12349;BME280;5974;42.710;27.258;2024-02-21T01:59:11;100899.59;;;1.36;100.00
12349;BME280;5974;42.710;27.258;2024-02-21T02:01:39;100896.88;;;1.21;100.00
12349;BME280;5974;42.710;27.258;2024-02-21T02:04:07;100896.13;;;1.29;100.00
12349;BME280;5974;42.710;27.258;2024-02-21T02:06:35;100894.22;;;1.15;100.00
12349;BME280;5974;42.710;27.258;2024-02-21T02:09:01;100897.81;;;1.30;100.00
12349;BME280;5974;42.710;27.258;2024-02-21T02:11:28;100900.56;;;1.48;100.00
12349;BME280;5974;42.710;27.258;2024-02-21T02:13:55;100903.16;;;1.50;100.00
12349;BME280;5974;42.710;27.258;2024-02-21T02:16:23;100904.00;;;1.49;100.00
12349;BME280;5974;42.710;27.258;2024-02-21T02:18:50;100913.22;;;1.23;100.00
12349;BME280;5974;42.710;27.258;2024-02-21T02:21:23;100912.34;;;1.22;100.00
12349;BME280;5974;42.710;27.258;2024-02-21T02:23:53;100919.31;;;1.32;100.00
12349;BME280;5974;42.710;27.258;2024-02-21T02:26:20;100914.94;;;1.27;100.00
12349;BME280;5974;42.710;27.258;2024-02-21T02:28:47;100915.91;;;1.36;100.00
12349;BME280;5974;42.710;27.258;2024-02-21T02:31:15;100911.44;;;1.19;100.00
12349;BME280;5974;42.710;27.258;2024-02-21T02:33:42;100912.19;;;1.07;100.00
12349;BME280;5974;42.710;27.258;2024-02-21T02:36:09;100914.34;;;1.50;100.00
12349;BME280;5974;42.710;27.258;2024-02-21T02:38:37;100917.97;;;0.89;100.00
12349;BME280;5974;42.710;27.258;2024-02-21T02:41:05;100910.69;;;1.30;100.00
12349;BME280;5974;42.710;27.258;2024-02-21T02:43:31;100905.38;;;1.12;100.00
12349;BME280;5974;42.710;27.258;2024-02-21T02:45:58;100907.22;;;1.25;100.00
12349;BME280;5974;42.710;27.258;2024-02-21T02:48:25;100908.03;;;1.20;100.00
12349;BME280;5974;42.710;27.258;2024-02-21T02:50:52;100901.19;;;1.23;100.00
12349;BME280;5974;42.710;27.258;2024-02-21T02:53:18;100901.16;;;1.19;100.00
12349;BME280;5974;42.710;27.258;2024-02-21T02:55:45;100906.22;;;1.09;100.00
12349;BME280;5974;42.710;27.258;2024-02-21T02:58:13;100905.38;;;1.12;100.00
12349;BME280;5974;42.710;27.258;2024-02-21T03:00:40;100902.06;;;1.27;100.00
12349;BME280;5974;42.710;27.258;2024-02-21T03:03:07;100904.72;;;1.33;100.00
12349;BME280;5974;42.710;27.258;2024-02-21T03:05:34;100910.91;;;1.54;100.00
12349;BME280;5974;42.710;27.258;2024-02-21T03:08:00;100905.91;;;1.71;100.00
12349;BME280;5974;42.710;27.258;2024-02-21T03:10:27;100905.19;;;1.87;100.00
12349;BME280;5974;42.710;27.258;2024-02-21T03:12:54;100911.31;;;2.03;100.00
12349;BME280;5974;42.710;27.258;2024-02-21T03:15:22;100907.91;;;2.08;100.00
12349;BME280;5974;42.710;27.258;2024-02-21T03:17:49;100903.94;;;1.43;100.00
12349;BME280;5974;42.710;27.258;2024-02-21T03:20:16;100910.72;;;1.33;100.00
12349;BME280;5974;42.710;27.258;2024-02-21T03:22:45;100890.44;;;0.79;100.00
12349;BME280;5974;42.710;27.258;2024-02-21T03:25:11;100900.66;;;1.56;100.00
12349;BME280;5974;42.710;27.258;2024-02-21T03:27:40;100902.72;;;2.05;100.00
12349;BME280;5974;42.710;27.258;2024-02-21T03:30:07;100904.97;;;1.61;100.00
12349;BME280;5974;42.710;27.258;2024-02-21T03:32:36;100910.28;;;0.92;100.00
12349;BME280;5974;42.710;27.258;2024-02-21T03:35:04;100912.91;;;0.94;100.00
12349;BME280;5974;42.710;27.258;2024-02-21T03:37:31;100922.16;;;1.59;100.00
12349;BME280;5974;42.710;27.258;2024-02-21T03:39:58;100921.50;;;1.91;100.00
12349;BME280;5974;42.710;27.258;2024-02-21T03:42:25;100928.44;;;1.98;100.00
12349;BME280;5974;42.710;27.258;2024-02-21T03:44:54;100920.78;;;2.10;100.00
12349;BME280;5974;42.710;27.258;2024-02-21T03:47:21;100913.94;;;2.13;100.00
12349;BME280;5974;42.710;27.258;2024-02-21T03:49:49;100907.16;;;2.29;100.00
12349;BME280;5974;42.710;27.258;2024-02-21T03:52:16;100901.06;;;2.12;100.00
12349;BME280;5974;42.710;27.258;2024-02-21T03:54:43;100900.06;;;1.90;100.00
12349;BME280;5974;42.710;27.258;2024-02-21T03:57:10;100897.63;;;2.19;100.00
12349;BME280;5974;42.710;27.258;2024-02-21T03:59:36;100912.41;;;2.40;100.00
12349;BME280;5974;42.710;27.258;2024-02-21T04:02:04;100901.13;;;2.24;100.00
12349;BME280;5974;42.710;27.258;2024-02-21T04:04:34;100909.59;;;2.02;100.00
12349;BME280;5974;42.710;27.258;2024-02-21T04:07:02;100911.41;;;2.15;100.00
12349;BME280;5974;42.710;27.258;2024-02-21T04:09:31;100903.72;;;2.29;100.00
12349;BME280;5974;42.710;27.258;2024-02-21T04:11:58;100907.84;;;1.99;100.00
12349;BME280;5974;42.710;27.258;2024-02-21T04:14:25;100908.78;;;2.09;100.00
12349;BME280;5974;42.710;27.258;2024-02-21T04:16:52;100916.44;;;1.97;100.00
12349;BME280;5974;42.710;27.258;2024-02-21T04:19:18;100923.78;;;1.51;100.00
12349;BME280;5974;42.710;27.258;2024-02-21T04:21:45;100930.66;;;1.54;100.00
12349;BME280;5974;42.710;27.258;2024-02-21T04:24:13;100935.28;;;1.90;100.00
12349;BME280;5974;42.710;27.258;2024-02-21T04:26:40;100932.75;;;2.00;100.00
12349;BME280;5974;42.710;27.258;2024-02-21T04:29:07;100923.47;;;2.24;100.00
12349;BME280;5974;42.710;27.258;2024-02-21T04:31:34;100925.22;;;2.26;100.00
12349;BME280;5974;42.710;27.258;2024-02-21T04:34:00;100929.50;;;2.26;100.00
12349;BME280;5974;42.710;27.258;2024-02-21T04:36:28;100930.91;;;1.78;100.00
12349;BME280;5974;42.710;27.258;2024-02-21T04:38:54;100932.13;;;1.26;100.00
12349;BME280;5974;42.710;27.258;2024-02-21T04:41:23;100927.06;;;1.32;100.00
12349;BME280;5974;42.710;27.258;2024-02-21T04:43:49;100924.03;;;0.91;100.00
12349;BME280;5974;42.710;27.258;2024-02-21T04:46:16;100929.22;;;0.96;100.00
12349;BME280;5974;42.710;27.258;2024-02-21T04:48:43;100941.19;;;1.80;100.00
12349;BME280;5974;42.710;27.258;2024-02-21T04:51:11;100936.28;;;2.11;100.00
12349;BME280;5974;42.710;27.258;2024-02-21T04:53:38;100939.88;;;2.30;100.00
12349;BME280;5974;42.710;27.258;2024-02-21T04:56:05;100937.28;;;2.33;100.00
12349;BME280;5974;42.710;27.258;2024-02-21T04:58:37;100944.28;;;2.51;100.00
12349;BME280;5974;42.710;27.258;2024-02-21T05:01:04;100931.03;;;1.96;100.00
12349;BME280;5974;42.710;27.258;2024-02-21T05:03:31;100937.59;;;1.58;100.00
12349;BME280;5974;42.710;27.258;2024-02-21T05:05:58;100931.13;;;2.10;100.00
12349;BME280;5974;42.710;27.258;2024-02-21T05:08:25;100934.66;;;2.26;100.00
12349;BME280;5974;42.710;27.258;2024-02-21T05:10:52;100935.66;;;2.47;100.00
12349;BME280;5974;42.710;27.258;2024-02-21T05:13:19;100938.34;;;2.67;100.00
12349;BME280;5974;42.710;27.258;2024-02-21T05:15:47;100934.91;;;2.69;100.00
12349;BME280;5974;42.710;27.258;2024-02-21T05:18:14;100934.53;;;2.07;100.00
12349;BME280;5974;42.710;27.258;2024-02-21T05:20:40;100934.56;;;2.10;100.00
12349;BME280;5974;42.710;27.258;2024-02-21T05:23:07;100943.38;;;2.47;100.00
12349;BME280;5974;42.710;27.258;2024-02-21T05:25:34;100944.41;;;2.84;100.00
12349;BME280;5974;42.710;27.258;2024-02-21T05:28:01;100946.22;;;3.03;100.00
12349;BME280;5974;42.710;27.258;2024-02-21T05:30:28;100941.78;;;2.69;100.00
12349;BME280;5974;42.710;27.258;2024-02-21T05:32:57;100951.19;;;2.58;100.00
12349;BME280;5974;42.710;27.258;2024-02-21T05:35:26;100958.00;;;2.42;100.00
12349;BME280;5974;42.710;27.258;2024-02-21T05:37:53;100961.47;;;2.49;100.00
12349;BME280;5974;42.710;27.258;2024-02-21T05:40:20;100960.69;;;2.65;100.00
12349;BME280;5974;42.710;27.258;2024-02-21T05:42:46;100956.38;;;2.64;100.00
12349;BME280;5974;42.710;27.258;2024-02-21T05:45:13;100958.06;;;2.56;100.00
12349;BME280;5974;42.710;27.258;2024-02-21T05:47:41;100948.69;;;1.49;100.00
12349;BME280;5974;42.710;27.258;2024-02-21T05:50:10;100945.81;;;2.20;100.00
12349;BME280;5974;42.710;27.258;2024-02-21T05:52:36;100968.31;;;2.44;100.00
12349;BME280;5974;42.710;27.258;2024-02-21T05:55:04;100965.03;;;2.75;100.00
12349;BME280;5974;42.710;27.258;2024-02-21T05:57:31;100974.53;;;2.79;100.00
12349;BME280;5974;42.710;27.258;2024-02-21T05:59:57;100975.59;;;3.31;100.00
12349;BME280;5974;42.710;27.258;2024-02-21T06:02:24;100978.22;;;4.35;100.00
12349;BME280;5974;42.710;27.258;2024-02-21T06:04:51;100971.81;;;5.33;100.00
12349;BME280;5974;42.710;27.258;2024-02-21T06:07:19;100961.16;;;5.77;100.00
12349;BME280;5974;42.710;27.258;2024-02-21T06:09:45;100960.50;;;6.54;100.00
12349;BME280;5974;42.710;27.258;2024-02-21T06:12:12;100953.53;;;7.86;100.00
12349;BME280;5974;42.710;27.258;2024-02-21T06:14:39;100951.88;;;8.33;100.00
12349;BME280;5974;42.710;27.258;2024-02-21T06:17:06;100949.97;;;6.65;100.00
12349;BME280;5974;42.710;27.258;2024-02-21T06:19:32;100959.44;;;6.72;100.00
12349;BME280;5974;42.710;27.258;2024-02-21T06:21:59;100954.31;;;8.88;100.00
12349;BME280;5974;42.710;27.258;2024-02-21T06:24:27;100947.31;;;9.30;100.00
12349;BME280;5974;42.710;27.258;2024-02-21T06:26:54;100957.53;;;10.46;100.00
12349;BME280;5974;42.710;27.258;2024-02-21T06:29:21;100958.66;;;11.58;100.00
12349;BME280;5974;42.710;27.258;2024-02-21T06:31:48;100956.09;;;12.36;100.00
12349;BME280;5974;42.710;27.258;2024-02-21T06:34:14;100960.28;;;11.62;100.00
12349;BME280;5974;42.710;27.258;2024-02-21T06:36:42;100961.25;;;10.38;100.00
12349;BME280;5974;42.710;27.258;2024-02-21T06:39:09;100958.81;;;10.64;100.00
12349;BME280;5974;42.710;27.258;2024-02-21T06:41:38;100958.06;;;9.91;100.00
12349;BME280;5974;42.710;27.258;2024-02-21T06:44:05;100949.47;;;8.21;100.00
12349;BME280;5974;42.710;27.258;2024-02-21T06:46:32;100961.22;;;8.46;100.00
12349;BME280;5974;42.710;27.258;2024-02-21T06:49:00;100955.53;;;8.70;100.00
12349;BME280;5974;42.710;27.258;2024-02-21T06:51:27;100960.66;;;8.27;100.00
12349;BME280;5974;42.710;27.258;2024-02-21T06:53:54;100966.00;;;7.63;100.00
12349;BME280;5974;42.710;27.258;2024-02-21T06:56:24;100959.59;;;7.87;100.00
12349;BME280;5974;42.710;27.258;2024-02-21T06:58:55;100971.34;;;7.54;100.00
12349;BME280;5974;42.710;27.258;2024-02-21T07:01:22;100975.59;;;7.62;100.00
12349;BME280;5974;42.710;27.258;2024-02-21T07:03:49;100976.66;;;7.48;100.00
12349;BME280;5974;42.710;27.258;2024-02-21T07:06:16;100980.44;;;7.85;100.00
12349;BME280;5974;42.710;27.258;2024-02-21T07:08:43;100980.66;;;7.07;100.00
12349;BME280;5974;42.710;27.258;2024-02-21T07:11:09;100978.41;;;6.79;100.00
12349;BME280;5974;42.710;27.258;2024-02-21T07:13:37;100987.75;;;6.10;100.00
12349;BME280;5974;42.710;27.258;2024-02-21T07:16:06;100981.91;;;5.86;100.00
12349;BME280;5974;42.710;27.258;2024-02-21T07:18:33;100988.88;;;5.74;100.00
12349;BME280;5974;42.710;27.258;2024-02-21T07:20:59;100988.06;;;5.66;100.00
12349;BME280;5974;42.710;27.258;2024-02-21T07:23:26;100988.75;;;5.92;100.00
12349;BME280;5974;42.710;27.258;2024-02-21T07:25:53;100980.50;;;6.45;100.00
12349;BME280;5974;42.710;27.258;2024-02-21T07:28:19;100980.97;;;6.82;100.00
12349;BME280;5974;42.710;27.258;2024-02-21T07:30:46;100976.25;;;7.14;100.00
12349;BME280;5974;42.710;27.258;2024-02-21T07:33:14;100964.31;;;7.62;100.00
12349;BME280;5974;42.710;27.258;2024-02-21T07:35:41;100971.50;;;8.01;100.00
12349;BME280;5974;42.710;27.258;2024-02-21T07:38:10;100968.19;;;8.44;100.00
12349;BME280;5974;42.710;27.258;2024-02-21T07:40:38;100970.63;;;8.53;100.00
12349;BME280;5974;42.710;27.258;2024-02-21T07:43:04;100968.28;;;8.84;100.00
12349;BME280;5974;42.710;27.258;2024-02-21T07:45:31;100976.22;;;8.32;100.00
12349;BME280;5974;42.710;27.258;2024-02-21T07:47:58;100977.16;;;8.28;100.00
12349;BME280;5974;42.710;27.258;2024-02-21T07:50:26;100976.44;;;8.67;100.00
12349;BME280;5974;42.710;27.258;2024-02-21T07:52:53;100974.34;;;10.02;100.00
12349;BME280;5974;42.710;27.258;2024-02-21T07:55:19;100968.84;;;10.13;100.00
12349;BME280;5974;42.710;27.258;2024-02-21T07:57:46;100968.53;;;10.59;100.00
12349;BME280;5974;42.710;27.258;2024-02-21T08:00:13;100965.06;;;10.89;100.00
12349;BME280;5974;42.710;27.258;2024-02-21T08:02:45;100960.22;;;11.35;100.00
12349;BME280;5974;42.710;27.258;2024-02-21T08:05:12;100960.75;;;12.02;100.00
12349;BME280;5974;42.710;27.258;2024-02-21T08:07:40;100948.28;;;12.60;100.00
12349;BME280;5974;42.710;27.258;2024-02-21T08:10:07;100959.38;;;10.75;100.00
12349;BME280;5974;42.710;27.258;2024-02-21T08:12:34;100956.22;;;11.52;100.00
12349;BME280;5974;42.710;27.258;2024-02-21T08:15:03;100955.38;;;12.31;100.00
12349;BME280;5974;42.710;27.258;2024-02-21T08:17:30;100953.84;;;12.00;100.00
12349;BME280;5974;42.710;27.258;2024-02-21T08:19:58;100949.72;;;11.92;100.00
12349;BME280;5974;42.710;27.258;2024-02-21T08:22:25;100926.28;;;12.39;100.00
12349;BME280;5974;42.710;27.258;2024-02-21T08:24:53;100938.47;;;12.65;100.00
12349;BME280;5974;42.710;27.258;2024-02-21T08:27:20;100943.22;;;12.78;100.00
12349;BME280;5974;42.710;27.258;2024-02-21T08:29:46;100944.50;;;13.38;94.66
12349;BME280;5974;42.710;27.258;2024-02-21T08:32:13;100935.13;;;13.31;92.35
12349;BME280;5974;42.710;27.258;2024-02-21T08:34:40;100933.41;;;13.30;92.08
12349;BME280;5974;42.710;27.258;2024-02-21T08:37:07;100930.75;;;12.11;95.35
12349;BME280;5974;42.710;27.258;2024-02-21T08:39:36;100934.09;;;12.88;96.78
12349;BME280;5974;42.710;27.258;2024-02-21T08:42:04;100926.63;;;12.28;94.03
12349;BME280;5974;42.710;27.258;2024-02-21T08:44:31;100931.88;;;12.28;96.54
12349;BME280;5974;42.710;27.258;2024-02-21T08:46:58;100932.06;;;11.14;98.49
12349;BME280;5974;42.710;27.258;2024-02-21T08:49:25;100942.94;;;11.58;100.00
12349;BME280;5974;42.710;27.258;2024-02-21T08:51:54;100924.94;;;12.03;100.00
12349;BME280;5974;42.710;27.258;2024-02-21T08:54:20;100927.84;;;12.18;100.00
12349;BME280;5974;42.710;27.258;2024-02-21T08:56:47;100937.84;;;12.07;100.00
12349;BME280;5974;42.710;27.258;2024-02-21T08:59:15;100927.09;;;11.90;99.71
12349;BME280;5974;42.710;27.258;2024-02-21T09:01:42;100933.03;;;11.95;99.94
12349;BME280;5974;42.710;27.258;2024-02-21T09:04:08;100939.81;;;12.27;97.57
12349;BME280;5974;42.710;27.258;2024-02-21T09:06:35;100940.75;;;12.49;96.70
12349;BME280;5974;42.710;27.258;2024-02-21T09:09:04;100914.72;;;12.68;93.56
12349;BME280;5974;42.710;27.258;2024-02-21T09:11:33;100940.41;;;12.60;92.27
12349;BME280;5974;42.710;27.258;2024-02-21T09:14:00;100934.25;;;12.61;91.09
12349;BME280;5974;42.710;27.258;2024-02-21T09:16:31;100932.19;;;12.45;93.68
12349;BME280;5974;42.710;27.258;2024-02-21T09:18:58;100931.75;;;12.07;93.39
12349;BME280;5974;42.710;27.258;2024-02-21T09:21:42;100933.53;;;11.80;93.80
12349;BME280;5974;42.710;27.258;2024-02-21T09:24:08;100933.16;;;12.17;93.88
12349;BME280;5974;42.710;27.258;2024-02-21T09:26:35;100925.53;;;12.35;95.73
12349;BME280;5974;42.710;27.258;2024-02-21T09:29:02;100925.06;;;13.42;92.72
12349;BME280;5974;42.710;27.258;2024-02-21T09:31:30;100926.13;;;13.15;91.94
12349;BME280;5974;42.710;27.258;2024-02-21T09:33:57;100932.78;;;13.46;89.99
12349;BME280;5974;42.710;27.258;2024-02-21T09:36:24;100922.75;;;13.78;88.46
12349;BME280;5974;42.710;27.258;2024-02-21T09:38:50;100924.69;;;14.36;87.51
12349;BME280;5974;42.710;27.258;2024-02-21T09:41:18;100909.03;;;13.91;84.97
12349;BME280;5974;42.710;27.258;2024-02-21T09:43:49;100925.50;;;13.75;86.64
12349;BME280;5974;42.710;27.258;2024-02-21T09:46:19;100897.22;;;14.01;87.74
12349;BME280;5974;42.710;27.258;2024-02-21T09:48:59;100922.56;;;14.44;83.43
12349;BME280;5974;42.710;27.258;2024-02-21T09:51:32;100920.13;;;14.60;82.48
12349;BME280;5974;42.710;27.258;2024-02-21T09:54:01;100913.28;;;14.56;80.25
12349;BME280;5974;42.710;27.258;2024-02-21T09:56:29;100912.94;;;14.23;81.86
12349;BME280;5974;42.710;27.258;2024-02-21T09:58:57;100908.47;;;14.25;79.99
12349;BME280;5974;42.710;27.258;2024-02-21T10:01:24;100911.72;;;14.71;80.45
12349;BME280;5974;42.710;27.258;2024-02-21T10:03:52;100910.00;;;14.51;79.24
12349;BME280;5974;42.710;27.258;2024-02-21T10:06:19;100908.81;;;14.58;79.06
12349;BME280;5974;42.710;27.258;2024-02-21T10:08:52;100912.44;;;15.13;77.48
12349;BME280;5974;42.710;27.258;2024-02-21T10:11:22;100912.28;;;15.16;77.40
12349;BME280;5974;42.710;27.258;2024-02-21T10:13:49;100899.84;;;15.01;76.56
12349;BME280;5974;42.710;27.258;2024-02-21T10:16:16;100889.59;;;15.68;75.02
12349;BME280;5974;42.710;27.258;2024-02-21T10:18:43;100893.81;;;15.89;74.13
12349;BME280;5974;42.710;27.258;2024-02-21T10:21:11;100883.78;;;15.79;74.41
12349;BME280;5974;42.710;27.258;2024-02-21T10:23:44;100873.03;;;14.13;74.50
12349;BME280;5974;42.710;27.258;2024-02-21T10:26:12;100879.09;;;14.36;75.10
12349;BME280;5974;42.710;27.258;2024-02-21T10:28:38;100862.75;;;15.41;74.87
12349;BME280;5974;42.710;27.258;2024-02-21T10:31:08;100862.53;;;15.99;74.06
12349;BME280;5974;42.710;27.258;2024-02-21T10:33:36;100861.31;;;15.71;73.56
12349;BME280;5974;42.710;27.258;2024-02-21T10:36:07;100856.34;;;15.83;73.22
12349;BME280;5974;42.710;27.258;2024-02-21T10:38:36;100849.97;;;15.69;72.09
12349;BME280;5974;42.710;27.258;2024-02-21T10:41:04;100843.22;;;15.98;71.55
12349;BME280;5974;42.710;27.258;2024-02-21T10:43:37;100842.66;;;16.09;70.82
12349;BME280;5974;42.710;27.258;2024-02-21T10:46:05;100837.03;;;15.46;70.84
12349;BME280;5974;42.710;27.258;2024-02-21T10:48:41;100833.84;;;14.85;70.38
12349;BME280;5974;42.710;27.258;2024-02-21T10:51:14;100844.44;;;15.02;69.76
12349;BME280;5974;42.710;27.258;2024-02-21T10:53:51;100834.03;;;14.62;68.34
12349;BME280;5974;42.710;27.258;2024-02-21T10:56:28;100830.13;;;14.32;70.14
12349;BME280;5974;42.710;27.258;2024-02-21T10:58:57;100824.53;;;15.33;69.41
12349;BME280;5974;42.710;27.258;2024-02-21T11:01:24;100821.41;;;16.45;64.58
12349;BME280;5974;42.710;27.258;2024-02-21T11:03:53;100823.47;;;16.88;65.53
12349;BME280;5974;42.710;27.258;2024-02-21T11:06:21;100822.69;;;17.02;61.98
12349;BME280;5974;42.710;27.258;2024-02-21T11:09:01;100818.25;;;16.38;62.66
12349;BME280;5974;42.710;27.258;2024-02-21T11:11:28;100820.59;;;15.05;65.23
12349;BME280;5974;42.710;27.258;2024-02-21T11:14:04;100813.53;;;15.06;66.27
12349;BME280;5974;42.710;27.258;2024-02-21T11:16:35;100813.72;;;14.84;66.10
12349;BME280;5974;42.710;27.258;2024-02-21T11:19:06;100813.56;;;14.69;67.29
12349;BME280;5974;42.710;27.258;2024-02-21T11:21:34;100809.44;;;14.24;68.70
12349;BME280;5974;42.710;27.258;2024-02-21T11:24:02;100787.31;;;14.48;67.42
12349;BME280;5974;42.710;27.258;2024-02-21T11:26:30;100815.84;;;14.57;67.16
12349;BME280;5974;42.710;27.258;2024-02-21T11:28:58;100809.78;;;14.55;66.93
12349;BME280;5974;42.710;27.258;2024-02-21T11:31:25;100806.38;;;14.91;65.44
12349;BME280;5974;42.710;27.258;2024-02-21T11:33:52;100806.13;;;15.14;65.09
12349;BME280;5974;42.710;27.258;2024-02-21T11:36:24;100811.78;;;14.69;65.15
12349;BME280;5974;42.710;27.258;2024-02-21T11:38:51;100806.16;;;14.39;65.92
12349;BME280;5974;42.710;27.258;2024-02-21T11:41:19;100793.03;;;13.79;67.71
12349;BME280;5974;42.710;27.258;2024-02-21T11:43:48;100807.06;;;14.18;66.88
12349;BME280;5974;42.710;27.258;2024-02-21T11:46:15;100800.19;;;14.36;66.31
12349;BME280;5974;42.710;27.258;2024-02-21T11:48:42;100802.53;;;14.60;66.99
12349;BME280;5974;42.710;27.258;2024-02-21T11:51:10;100791.44;;;15.27;65.07
12349;BME280;5974;42.710;27.258;2024-02-21T11:53:37;100790.72;;;15.59;64.43
12349;BME280;5974;42.710;27.258;2024-02-21T11:56:04;100786.72;;;15.34;65.32
12349;BME280;5974;42.710;27.258;2024-02-21T11:58:32;100789.75;;;13.74;67.63
12349;BME280;5974;42.710;27.258;2024-02-21T12:00:59;100782.91;;;13.49;69.18
12349;BME280;5974;42.710;27.258;2024-02-21T12:03:28;100784.69;;;14.28;68.95
12349;BME280;5974;42.710;27.258;2024-02-21T12:05:55;100785.09;;;14.19;69.26
12349;BME280;5974;42.710;27.258;2024-02-21T12:08:24;100777.72;;;14.08;68.91
12349;BME280;5974;42.710;27.258;2024-02-21T12:10:50;100777.50;;;14.13;68.30
12349;BME280;5974;42.710;27.258;2024-02-21T12:13:17;100786.59;;;13.66;69.42
12349;BME280;5974;42.710;27.258;2024-02-21T12:15:50;100774.56;;;13.60;69.62
12349;BME280;5974;42.710;27.258;2024-02-21T12:18:17;100767.41;;;13.43;70.94
12349;BME280;5974;42.710;27.258;2024-02-21T12:20:43;100766.84;;;13.35;70.22
12349;BME280;5974;42.710;27.258;2024-02-21T12:23:11;100774.25;;;13.68;69.46
12349;BME280;5974;42.710;27.258;2024-02-21T12:25:38;100767.69;;;13.36;70.29
12349;BME280;5974;42.710;27.258;2024-02-21T12:28:05;100759.28;;;13.06;70.69
12349;BME280;5974;42.710;27.258;2024-02-21T12:30:32;100768.59;;;13.77;69.30
12349;BME280;5974;42.710;27.258;2024-02-21T12:33:02;100751.81;;;14.76;66.88
12349;BME280;5974;42.710;27.258;2024-02-21T12:35:29;100757.47;;;15.21;64.97
12349;BME280;5974;42.710;27.258;2024-02-21T12:37:58;100765.16;;;14.34;66.13
12349;BME280;5974;42.710;27.258;2024-02-21T12:40:25;100756.34;;;14.91;66.05
12349;BME280;5974;42.710;27.258;2024-02-21T12:42:58;100751.06;;;14.55;66.02
12349;BME280;5974;42.710;27.258;2024-02-21T12:45:24;100743.22;;;14.72;65.89
12349;BME280;5974;42.710;27.258;2024-02-21T12:47:51;100751.97;;;14.35;66.47
12349;BME280;5974;42.710;27.258;2024-02-21T12:50:20;100747.50;;;14.17;65.95
12349;BME280;5974;42.710;27.258;2024-02-21T12:52:48;100755.47;;;14.54;66.00